Time;durP1;ratioP1;P1;durP2;ratioP2;P2;SDS_P1;SDS_P2;PMS_P1;PMS_P2;Temp;Humidity;BMP_temperature;BMP_pressure;BME280_temperature;BME280_humidity;BME280_pressure;Samples;Min_cycle;Max_cycle;Signal;HPM_P1;HPM_P2
2023/02/07 00:02:03;;;;;;;17.17;10.18;;;0.60;99.90;;;;;;5029335;28;20104;-75
2023/02/07 00:04:29;;;;;;;24.63;10.82;;;0.70;99.90;;;;;;5030967;28;20030;-74
2023/02/07 00:06:55;;;;;;;19.25;9.68;;;0.70;99.90;;;;;;5011195;28;20120;-74
2023/02/07 00:09:21;;;;;;;17.08;10.27;;;0.70;99.90;;;;;;5025639;28;20083;-74
2023/02/07 00:11:46;;;;;;;18.80;10.05;;;0.60;99.90;;;;;;5025717;28;20152;-74
2023/02/07 00:14:12;;;;;;;19.70;10.27;;;0.60;99.90;;;;;;5027884;28;20037;-74
2023/02/07 00:16:39;;;;;;;18.67;9.30;;;0.60;99.90;;;;;;5025978;28;20040;-74
2023/02/07 00:19:05;;;;;;;15.75;9.25;;;0.60;99.90;;;;;;5027969;28;20037;-73
2023/02/07 00:21:31;;;;;;;15.90;9.75;;;0.60;99.90;;;;;;5026214;28;20025;-73
2023/02/07 00:23:57;;;;;;;16.77;9.68;;;0.60;99.90;;;;;;5026383;28;20036;-75
2023/02/07 00:26:24;;;;;;;14.85;8.60;;;0.60;99.90;;;;;;5025405;28;20696;-75
2023/02/07 00:28:52;;;;;;;17.23;9.63;;;0.60;99.90;;;;;;5026200;28;20060;-73
2023/02/07 00:31:22;;;;;;;19.23;9.52;;;0.60;99.90;;;;;;5026922;28;20064;-76
2023/02/07 00:33:49;;;;;;;20.38;10.05;;;0.60;99.90;;;;;;5026717;28;20055;-73
2023/02/07 00:36:18;;;;;;;19.00;11.10;;;0.60;99.90;;;;;;5026591;28;20112;-76
2023/02/07 00:38:45;;;;;;;15.13;9.32;;;0.60;99.90;;;;;;5028359;28;20059;-74
2023/02/07 00:41:17;;;;;;;16.00;9.82;;;0.50;99.90;;;;;;5030546;28;20512;-73
2023/02/07 00:43:44;;;;;;;19.02;10.88;;;0.50;99.90;;;;;;5024650;28;20711;-74
2023/02/07 00:46:10;;;;;;;15.23;9.93;;;0.50;99.90;;;;;;5027702;28;20029;-74
2023/02/07 00:48:38;;;;;;;21.17;10.45;;;0.50;99.90;;;;;;5028416;28;20017;-74
2023/02/07 00:51:04;;;;;;;16.02;10.18;;;0.50;99.90;;;;;;5029821;28;20558;-75
2023/02/07 00:53:30;;;;;;;17.50;10.80;;;0.50;99.90;;;;;;5027047;28;20049;-75
2023/02/07 00:55:56;;;;;;;19.13;11.25;;;0.50;99.90;;;;;;5031783;28;20432;-75
2023/02/07 00:58:24;;;;;;;21.17;11.10;;;0.50;99.90;;;;;;5029638;28;20032;-75
2023/02/07 01:00:50;;;;;;;20.02;10.73;;;0.50;99.90;;;;;;5026981;28;20033;-75
2023/02/07 01:03:17;;;;;;;23.67;10.70;;;0.40;99.90;;;;;;5027119;28;20116;-74
2023/02/07 01:05:43;;;;;;;21.00;10.40;;;0.40;99.90;;;;;;5027747;28;20022;-75
2023/02/07 01:08:09;;;;;;;18.63;10.32;;;0.50;99.90;;;;;;5026869;28;20088;-73
2023/02/07 01:10:38;;;;;;;19.80;10.60;;;0.40;99.90;;;;;;5026936;28;20045;-73
2023/02/07 01:13:04;;;;;;;21.92;10.50;;;0.40;99.90;;;;;;5023438;28;20091;-75
2023/02/07 01:15:30;;;;;;;17.38;11.13;;;0.40;99.90;;;;;;5024583;28;20025;-74
2023/02/07 01:17:56;;;;;;;17.52;10.45;;;0.40;99.90;;;;;;5026321;28;20045;-73
2023/02/07 01:20:22;;;;;;;18.15;11.05;;;0.40;99.90;;;;;;5024612;28;20127;-73
2023/02/07 01:22:47;;;;;;;19.98;10.25;;;0.40;99.90;;;;;;5027647;28;20080;-73
2023/02/07 01:25:15;;;;;;;20.20;10.65;;;0.40;99.90;;;;;;5025441;28;20044;-76
2023/02/07 01:27:41;;;;;;;18.85;10.57;;;0.40;99.90;;;;;;5023874;28;20048;-73
2023/02/07 01:30:07;;;;;;;21.88;10.55;;;0.40;99.90;;;;;;5023600;28;20033;-75
2023/02/07 01:32:33;;;;;;;16.80;10.32;;;0.40;99.90;;;;;;5027563;28;20121;-74
2023/02/07 01:34:59;;;;;;;19.58;9.95;;;0.40;99.90;;;;;;5022849;28;20138;-75
2023/02/07 01:37:25;;;;;;;16.17;9.60;;;0.30;99.90;;;;;;5042576;28;20361;-73
2023/02/07 01:39:51;;;;;;;17.90;10.07;;;0.40;99.90;;;;;;5010077;28;20171;-74
2023/02/07 01:42:18;;;;;;;19.50;10.00;;;0.30;99.90;;;;;;5024049;28;20108;-74
2023/02/07 01:44:44;;;;;;;19.45;10.75;;;0.30;99.90;;;;;;5025758;28;20033;-75
2023/02/07 01:47:23;;;;;;;17.75;10.10;;;0.30;99.90;;;;;;5028291;28;20827;-74
2023/02/07 01:49:52;;;;;;;17.25;10.00;;;0.30;99.90;;;;;;5025236;28;20049;-74
2023/02/07 01:52:28;;;;;;;18.08;10.07;;;0.20;99.90;;;;;;5024979;28;20034;-75
2023/02/07 01:54:58;;;;;;;15.55;9.48;;;0.20;99.90;;;;;;5026633;28;20036;-75
2023/02/07 01:57:24;;;;;;;16.58;9.85;;;0.20;99.90;;;;;;5038789;28;20040;-75
2023/02/07 01:59:54;;;;;;;17.33;8.93;;;0.20;99.90;;;;;;5029908;28;20033;-73
2023/02/07 02:02:22;;;;;;;17.85;10.32;;;0.20;99.90;;;;;;5023351;28;20037;-75
2023/02/07 02:04:51;;;;;;;15.82;9.82;;;0.20;99.90;;;;;;5027379;28;20112;-74
2023/02/07 02:07:17;;;;;;;17.52;10.18;;;0.20;99.90;;;;;;5023503;28;20029;-75
2023/02/07 02:09:43;;;;;;;17.75;10.93;;;0.10;99.90;;;;;;5026419;28;20025;-75
2023/02/07 02:12:36;;;;;;;20.02;10.65;;;0.10;99.90;;;;;;5023120;28;20031;-73
2023/02/07 02:15:12;;;;;;;15.50;9.77;;;0.10;99.90;;;;;;5023304;28;20452;-75
2023/02/07 02:18:00;;;;;;;20.45;11.15;;;0.00;99.90;;;;;;5030465;28;20029;-76
2023/02/07 02:21:07;;;;;;;15.75;9.88;;;-0.10;99.90;;;;;;5029467;28;20025;-74
2023/02/07 02:23:43;;;;;;;15.13;9.63;;;-0.10;99.90;;;;;;5020507;28;20030;-75
2023/02/07 02:26:33;;;;;;;18.77;9.52;;;-0.10;99.90;;;;;;5024729;28;20038;-73
2023/02/07 02:29:18;;;;;;;18.40;10.73;;;-0.10;99.90;;;;;;5025479;28;20633;-75
2023/02/07 02:32:17;;;;;;;16.45;9.57;;;-0.10;99.90;;;;;;5024176;28;20026;-74
2023/02/07 02:34:45;;;;;;;17.23;9.73;;;0.00;99.90;;;;;;5025277;28;20029;-75
2023/02/07 02:37:31;;;;;;;17.00;9.57;;;0.00;99.90;;;;;;5028474;28;20033;-73
2023/02/07 02:40:09;;;;;;;17.00;9.18;;;-0.10;99.90;;;;;;5030598;28;20048;-75
2023/02/07 02:42:51;;;;;;;18.85;9.80;;;-0.10;99.90;;;;;;5021300;28;20056;-75
2023/02/07 02:45:45;;;;;;;17.88;9.48;;;0.00;99.90;;;;;;5026672;28;20091;-75
2023/02/07 02:48:11;;;;;;;15.90;9.82;;;0.00;99.90;;;;;;5027270;28;20036;-74
2023/02/07 02:50:38;;;;;;;18.63;10.60;;;0.00;99.90;;;;;;5033954;28;20049;-73
2023/02/07 02:53:04;;;;;;;17.25;9.32;;;0.00;99.90;;;;;;5036455;28;20029;-73
2023/02/07 02:55:54;;;;;;;17.13;9.75;;;-0.10;99.90;;;;;;5032044;28;20513;-75
2023/02/07 02:58:32;;;;;;;15.77;9.48;;;-0.10;99.90;;;;;;5027814;28;20033;-76
2023/02/07 03:01:20;;;;;;;16.10;9.48;;;-0.10;99.90;;;;;;5029635;28;20105;-73
2023/02/07 03:04:03;;;;;;;19.98;9.70;;;-0.10;99.90;;;;;;5029535;28;20041;-75
2023/02/07 03:06:55;;;;;;;14.10;8.77;;;-0.10;99.90;;;;;;5030489;28;20409;-73
2023/02/07 03:09:58;;;;;;;19.10;9.88;;;-0.10;99.90;;;;;;5025628;28;20041;-75
2023/02/07 03:12:51;;;;;;;19.55;9.38;;;-0.10;99.90;;;;;;5027767;28;20061;-73
2023/02/07 03:15:28;;;;;;;18.48;9.18;;;-0.10;99.90;;;;;;5030813;28;20041;-73
2023/02/07 03:18:14;;;;;;;18.83;9.43;;;-0.10;99.90;;;;;;5027568;28;20026;-72
2023/02/07 03:20:52;;;;;;;15.57;8.57;;;-0.10;99.90;;;;;;5030932;28;20144;-75
2023/02/07 03:23:19;;;;;;;15.65;9.27;;;-0.10;99.90;;;;;;5044258;28;20436;-73
2023/02/07 03:25:49;;;;;;;15.73;8.95;;;-0.20;99.90;;;;;;5028911;28;20061;-75
2023/02/07 03:28:17;;;;;;;15.75;8.80;;;-0.20;99.90;;;;;;5008656;28;20565;-75
2023/02/07 03:30:48;;;;;;;17.23;9.07;;;-0.20;99.90;;;;;;5010821;28;20029;-73
2023/02/07 03:33:15;;;;;;;17.83;9.63;;;-0.20;99.90;;;;;;4991952;28;20148;-76
2023/02/07 03:35:47;;;;;;;14.50;8.95;;;-0.30;99.90;;;;;;5027509;28;20021;-74
2023/02/07 03:38:13;;;;;;;17.95;9.27;;;-0.30;99.90;;;;;;5029351;28;20033;-73
2023/02/07 03:40:43;;;;;;;18.45;9.55;;;-0.30;99.90;;;;;;5029649;28;20032;-72
2023/02/07 03:43:28;;;;;;;20.63;10.43;;;-0.30;99.90;;;;;;5030484;28;20080;-74
2023/02/07 03:45:54;;;;;;;17.33;9.13;;;-0.40;99.90;;;;;;5029722;28;20280;-75
2023/02/07 03:48:20;;;;;;;15.52;9.40;;;-0.30;99.90;;;;;;5032111;28;20033;-75
2023/02/07 03:50:48;;;;;;;15.95;8.90;;;-0.40;99.90;;;;;;5023683;28;20547;-73
2023/02/07 03:53:14;;;;;;;16.95;9.60;;;-0.40;99.90;;;;;;5026663;28;20541;-74
2023/02/07 03:55:40;;;;;;;18.85;10.60;;;-0.50;99.90;;;;;;5029543;28;20029;-75
2023/02/07 03:58:07;;;;;;;17.52;9.38;;;-0.40;99.90;;;;;;5025818;28;20031;-75
2023/02/07 04:00:33;;;;;;;16.42;10.27;;;-0.40;99.90;;;;;;5026774;28;20108;-74
2023/02/07 04:02:59;;;;;;;17.38;10.02;;;-0.50;99.90;;;;;;5024899;28;20105;-74
2023/02/07 04:05:25;;;;;;;13.68;8.82;;;-0.50;99.90;;;;;;5010153;28;20382;-73
2023/02/07 04:07:51;;;;;;;18.90;9.85;;;-0.50;99.90;;;;;;5026258;28;20034;-73
2023/02/07 04:10:18;;;;;;;15.68;9.77;;;-0.40;99.90;;;;;;5027912;28;20037;-75
2023/02/07 04:12:44;;;;;;;16.58;9.50;;;-0.50;99.90;;;;;;5027990;28;20148;-73
2023/02/07 04:15:10;;;;;;;17.02;10.63;;;-0.50;99.90;;;;;;5028881;28;20028;-74
2023/02/07 04:17:36;;;;;;;17.75;9.80;;;-0.50;99.90;;;;;;5028212;28;20460;-74
2023/02/07 04:20:02;;;;;;;15.13;9.80;;;-0.50;99.90;;;;;;5030247;28;20530;-73
2023/02/07 04:22:28;;;;;;;16.58;9.50;;;-0.50;99.90;;;;;;5026140;28;20033;-76
2023/02/07 04:24:56;;;;;;;16.13;10.05;;;-0.50;99.90;;;;;;5025497;28;20413;-76
2023/02/07 04:27:22;;;;;;;15.18;8.88;;;-0.60;99.90;;;;;;5025564;28;20029;-76
2023/02/07 04:29:47;;;;;;;15.65;9.40;;;-0.50;99.90;;;;;;5022979;28;20029;-76
2023/02/07 04:32:13;;;;;;;15.70;9.70;;;-0.50;99.90;;;;;;5026622;28;20100;-74
2023/02/07 04:34:39;;;;;;;20.38;10.52;;;-0.50;99.90;;;;;;5012718;28;20022;-74
2023/02/07 04:37:05;;;;;;;20.17;9.63;;;-0.50;99.90;;;;;;5026395;28;20033;-73
2023/02/07 04:39:30;;;;;;;17.75;10.20;;;-0.50;99.90;;;;;;5026955;28;20037;-75
2023/02/07 04:41:57;;;;;;;16.05;9.30;;;-0.50;99.90;;;;;;5024980;28;20033;-75
2023/02/07 04:44:23;;;;;;;14.85;8.98;;;-0.50;99.90;;;;;;5028760;28;20064;-75
2023/02/07 04:46:50;;;;;;;18.45;10.00;;;-0.60;99.90;;;;;;5027073;28;20462;-74
2023/02/07 04:49:15;;;;;;;16.88;9.23;;;-0.50;99.90;;;;;;5026222;28;20053;-74
2023/02/07 04:51:41;;;;;;;17.15;9.60;;;-0.60;99.90;;;;;;5025291;28;20057;-75
2023/02/07 04:54:07;;;;;;;17.20;9.35;;;-0.60;99.90;;;;;;5027066;28;20145;-73
2023/02/07 04:56:33;;;;;;;17.67;10.18;;;-0.60;99.90;;;;;;5027690;28;20025;-74
2023/02/07 04:58:58;;;;;;;18.88;10.48;;;-0.60;99.90;;;;;;5025067;28;20084;-73
2023/02/07 05:01:24;;;;;;;19.38;10.63;;;-0.60;99.90;;;;;;5026444;28;20583;-74
2023/02/07 05:03:50;;;;;;;18.40;9.60;;;-0.60;99.90;;;;;;5030124;28;20053;-74
2023/02/07 05:06:16;;;;;;;17.55;9.70;;;-0.70;99.90;;;;;;5029317;28;20068;-75
2023/02/07 05:08:41;;;;;;;15.23;9.57;;;-0.70;99.90;;;;;;5028036;28;20080;-74
2023/02/07 05:11:07;;;;;;;16.05;8.95;;;-0.70;99.90;;;;;;5026929;28;20038;-74
2023/02/07 05:13:33;;;;;;;17.88;8.80;;;-0.60;99.90;;;;;;5023646;28;20021;-73
2023/02/07 05:16:03;;;;;;;16.30;9.63;;;-0.70;99.90;;;;;;5027025;28;20069;-73
2023/02/07 05:18:29;;;;;;;19.48;9.52;;;-0.70;99.90;;;;;;5024340;28;20141;-73
2023/02/07 05:20:54;;;;;;;18.63;10.07;;;-0.70;99.90;;;;;;5026057;28;20037;-76
2023/02/07 05:23:20;;;;;;;17.63;10.15;;;-0.70;99.90;;;;;;5010077;28;20044;-75
2023/02/07 05:25:48;;;;;;;16.38;9.52;;;-0.70;99.90;;;;;;5024675;28;20029;-73
2023/02/07 05:28:15;;;;;;;17.50;9.85;;;-0.70;99.90;;;;;;5025237;28;20041;-74
2023/02/07 05:30:40;;;;;;;16.80;9.50;;;-0.70;99.90;;;;;;5016910;28;20029;-74
2023/02/07 05:33:06;;;;;;;20.50;11.98;;;-0.80;99.90;;;;;;5007967;28;20936;-74
2023/02/07 05:35:41;;;;;;;17.77;10.48;;;-0.80;99.90;;;;;;5026862;28;20034;-73
2023/02/07 05:38:10;;;;;;;18.90;10.63;;;-0.80;99.90;;;;;;5027825;28;20083;-74
2023/02/07 05:40:38;;;;;;;20.55;10.45;;;-0.80;99.90;;;;;;5024736;28;20033;-75
2023/02/07 05:43:04;;;;;;;20.60;10.57;;;-0.70;99.90;;;;;;5024752;28;20037;-73
2023/02/07 05:45:30;;;;;;;17.33;10.00;;;-0.70;99.90;;;;;;5027217;28;20048;-74
2023/02/07 05:47:56;;;;;;;18.50;10.77;;;-0.70;99.90;;;;;;5003300;28;20101;-73
2023/02/07 05:50:22;;;;;;;19.15;9.52;;;-0.80;99.90;;;;;;5026021;28;20224;-75
2023/02/07 05:52:48;;;;;;;14.70;9.55;;;-0.70;99.90;;;;;;5024648;28;20037;-75
2023/02/07 05:55:14;;;;;;;19.13;10.00;;;-0.80;99.90;;;;;;5025113;28;20065;-74
2023/02/07 05:57:41;;;;;;;19.55;9.27;;;-0.80;99.90;;;;;;5008879;28;20668;-74
2023/02/07 06:00:13;;;;;;;20.55;10.18;;;-0.80;99.90;;;;;;5029328;28;20119;-75
2023/02/07 06:02:39;;;;;;;19.80;10.55;;;-0.80;99.90;;;;;;5005193;28;20029;-74
2023/02/07 06:05:07;;;;;;;19.05;9.70;;;-0.80;99.90;;;;;;5019744;28;20508;-74
2023/02/07 06:07:33;;;;;;;17.40;10.13;;;-0.80;99.90;;;;;;5002124;28;20030;-75
2023/02/07 06:09:59;;;;;;;17.35;10.05;;;-0.80;99.90;;;;;;5019462;28;20040;-77
2023/02/07 06:12:24;;;;;;;18.60;9.95;;;-0.80;99.90;;;;;;5028003;28;20021;-74
2023/02/07 06:14:50;;;;;;;19.67;10.88;;;-0.80;99.90;;;;;;5030725;28;20040;-75
2023/02/07 06:17:16;;;;;;;17.40;9.48;;;-0.80;99.90;;;;;;5029129;28;21437;-75
2023/02/07 06:19:43;;;;;;;19.65;10.13;;;-0.80;99.90;;;;;;5033069;28;20029;-75
2023/02/07 06:22:09;;;;;;;16.67;10.13;;;-0.80;99.90;;;;;;5027656;28;20046;-76
2023/02/07 06:24:34;;;;;;;22.60;10.70;;;-0.80;99.90;;;;;;5031045;28;20056;-75
2023/02/07 06:27:00;;;;;;;20.90;10.75;;;-0.80;99.90;;;;;;5028881;28;20411;-76
2023/02/07 06:29:26;;;;;;;16.15;9.40;;;-0.80;99.90;;;;;;5030559;28;20052;-74
2023/02/07 06:31:51;;;;;;;19.42;11.50;;;-0.80;99.90;;;;;;5041833;28;20029;-75
2023/02/07 06:34:17;;;;;;;20.95;10.35;;;-0.80;99.90;;;;;;5032644;28;20021;-74
2023/02/07 06:36:43;;;;;;;19.33;10.23;;;-0.80;99.90;;;;;;5030893;28;20076;-74
2023/02/07 06:39:10;;;;;;;17.02;9.52;;;-0.80;99.90;;;;;;5016595;28;20045;-74
2023/02/07 06:41:36;;;;;;;18.42;10.27;;;-0.90;99.90;;;;;;5030296;28;20056;-75
2023/02/07 06:44:02;;;;;;;19.90;10.57;;;-0.80;99.90;;;;;;5025220;28;20038;-75
2023/02/07 06:46:28;;;;;;;20.27;11.23;;;-0.80;99.90;;;;;;5028804;28;20087;-73
2023/02/07 06:48:54;;;;;;;21.60;10.25;;;-0.90;99.90;;;;;;5020718;28;20435;-73
2023/02/07 06:51:20;;;;;;;17.17;9.82;;;-0.90;99.90;;;;;;5024476;28;20029;-73
2023/02/07 06:53:45;;;;;;;23.05;11.18;;;-0.90;99.90;;;;;;5023977;28;20516;-73
2023/02/07 06:56:12;;;;;;;22.52;11.50;;;-0.90;99.90;;;;;;5022553;28;20572;-75
2023/02/07 06:58:39;;;;;;;21.02;11.05;;;-0.90;99.90;;;;;;5025797;28;20100;-76
2023/02/07 07:01:06;;;;;;;20.45;11.52;;;-0.90;99.90;;;;;;5023735;28;20172;-73
2023/02/07 07:03:32;;;;;;;18.80;10.77;;;-0.90;99.90;;;;;;5008331;28;20040;-73
2023/02/07 07:05:58;;;;;;;18.83;10.55;;;-0.90;99.90;;;;;;5029800;28;20034;-75
2023/02/07 07:08:25;;;;;;;21.80;10.70;;;-0.90;99.90;;;;;;5025941;28;20025;-74
2023/02/07 07:10:52;;;;;;;23.30;11.50;;;-0.80;99.90;;;;;;5025305;28;20386;-73
2023/02/07 07:13:18;;;;;;;19.60;11.18;;;-0.90;99.90;;;;;;5024151;28;20033;-73
2023/02/07 07:15:44;;;;;;;20.23;10.57;;;-0.80;99.90;;;;;;5025817;28;20079;-78
2023/02/07 07:18:10;;;;;;;20.52;10.90;;;-0.80;99.90;;;;;;5021962;28;20037;-73
2023/02/07 07:20:36;;;;;;;16.73;10.25;;;-0.80;99.90;;;;;;5011855;28;20379;-74
2023/02/07 07:23:02;;;;;;;19.30;10.93;;;-0.80;99.90;;;;;;5028632;28;20049;-77
2023/02/07 07:25:27;;;;;;;23.17;12.23;;;-0.80;99.90;;;;;;5024105;28;20029;-76
2023/02/07 07:27:53;;;;;;;22.52;11.60;;;-0.80;99.90;;;;;;5022502;28;20139;-74
2023/02/07 07:30:19;;;;;;;20.35;11.05;;;-0.80;99.90;;;;;;5024244;28;20091;-76
2023/02/07 07:32:45;;;;;;;19.73;11.55;;;-0.80;99.90;;;;;;5008778;28;20257;-74
2023/02/07 07:35:10;;;;;;;22.33;12.50;;;-0.80;99.90;;;;;;5024317;28;20567;-74
2023/02/07 07:37:36;;;;;;;24.95;13.25;;;-0.70;99.90;;;;;;5002530;28;20030;-74
2023/02/07 07:40:03;;;;;;;22.80;12.38;;;-0.70;99.90;;;;;;5026925;28;21130;-74
2023/02/07 07:42:29;;;;;;;21.08;12.15;;;-0.70;99.90;;;;;;5023206;28;20035;-76
2023/02/07 07:44:55;;;;;;;21.17;12.00;;;-0.60;99.90;;;;;;5017313;28;20037;-76
2023/02/07 07:47:21;;;;;;;21.10;12.05;;;-0.60;99.90;;;;;;5006079;28;20033;-74
2023/02/07 07:49:47;;;;;;;22.75;12.35;;;-0.60;99.90;;;;;;5021077;28;20036;-74
2023/02/07 07:52:14;;;;;;;21.17;11.75;;;-0.60;99.90;;;;;;5028271;28;20505;-76
2023/02/07 07:54:40;;;;;;;22.70;13.07;;;-0.60;99.90;;;;;;5010525;28;20025;-75
2023/02/07 07:57:05;;;;;;;25.48;12.85;;;-0.60;99.90;;;;;;5003076;28;20025;-74
2023/02/07 07:59:31;;;;;;;22.75;12.93;;;-0.60;99.90;;;;;;5027569;28;20109;-74
2023/02/07 08:01:57;;;;;;;28.77;14.18;;;-0.50;99.90;;;;;;5017006;28;20040;-74
2023/02/07 08:04:23;;;;;;;23.58;13.18;;;-0.50;99.90;;;;;;5027835;28;20029;-75
2023/02/07 08:06:48;;;;;;;23.20;12.45;;;-0.50;99.90;;;;;;5008731;28;20133;-74
2023/02/07 08:09:14;;;;;;;23.90;12.95;;;-0.50;99.90;;;;;;5024843;28;20037;-73
2023/02/07 08:11:40;;;;;;;20.90;12.27;;;-0.50;99.90;;;;;;5018074;28;20220;-74
2023/02/07 08:14:06;;;;;;;24.63;13.00;;;-0.50;99.90;;;;;;5011654;28;20460;-74
2023/02/07 08:16:31;;;;;;;23.27;13.32;;;-0.50;99.90;;;;;;5021477;28;20048;-73
2023/02/07 08:18:57;;;;;;;26.20;13.05;;;-0.50;99.90;;;;;;5027726;28;20088;-74
2023/02/07 08:21:25;;;;;;;23.48;13.15;;;-0.50;99.90;;;;;;5025502;28;20675;-73
2023/02/07 08:23:52;;;;;;;23.92;12.75;;;-0.50;99.90;;;;;;5026078;28;20048;-73
2023/02/07 08:26:18;;;;;;;30.20;15.57;;;-0.50;99.90;;;;;;5008411;28;20040;-73
2023/02/07 08:28:43;;;;;;;30.77;14.73;;;-0.50;99.90;;;;;;5024412;28;20275;-75
2023/02/07 08:31:11;;;;;;;26.73;14.65;;;-0.60;99.90;;;;;;5028876;28;20072;-76
2023/02/07 08:33:37;;;;;;;30.13;14.50;;;-0.60;99.90;;;;;;5010067;28;20029;-75
2023/02/07 08:36:07;;;;;;;22.73;13.82;;;-0.60;99.90;;;;;;5025760;28;20531;-76
2023/02/07 08:38:33;;;;;;;25.98;14.68;;;-0.60;99.90;;;;;;5009560;28;20049;-77
2023/02/07 08:40:59;;;;;;;27.33;13.93;;;-0.50;99.90;;;;;;5024522;28;20191;-77
2023/02/07 08:43:25;;;;;;;27.75;14.13;;;-0.50;99.90;;;;;;5023391;28;20103;-74
2023/02/07 08:45:51;;;;;;;24.55;14.10;;;-0.50;99.90;;;;;;5009827;28;20029;-74
2023/02/07 08:48:17;;;;;;;22.65;13.82;;;-0.40;99.90;;;;;;5028364;28;20081;-74
2023/02/07 08:50:43;;;;;;;26.70;14.80;;;-0.50;99.90;;;;;;5023483;28;20052;-74
2023/02/07 08:53:09;;;;;;;24.10;13.45;;;-0.40;99.90;;;;;;5028796;28;20029;-74
2023/02/07 08:55:35;;;;;;;25.52;13.88;;;-0.40;99.90;;;;;;5025157;28;20029;-75
2023/02/07 08:58:01;;;;;;;25.75;14.15;;;-0.40;99.90;;;;;;5039010;28;20065;-74
2023/02/07 09:00:27;;;;;;;28.50;15.50;;;-0.40;99.90;;;;;;5007747;28;20112;-74
2023/02/07 09:02:52;;;;;;;29.35;14.40;;;-0.50;99.90;;;;;;5028880;28;20163;-75
2023/02/07 09:05:18;;;;;;;26.05;14.52;;;-0.50;99.90;;;;;;5007268;28;20029;-74
2023/02/07 09:07:44;;;;;;;26.17;15.05;;;-0.40;99.90;;;;;;5024665;28;20617;-74
2023/02/07 09:10:10;;;;;;;25.38;13.85;;;-0.40;99.90;;;;;;5023797;28;20555;-74
2023/02/07 09:12:36;;;;;;;28.80;14.95;;;-0.30;99.90;;;;;;5022992;28;20478;-74
2023/02/07 09:15:03;;;;;;;26.65;15.48;;;-0.30;99.90;;;;;;5022316;28;20079;-74
2023/02/07 09:17:29;;;;;;;27.60;14.82;;;-0.30;99.90;;;;;;5008150;28;20567;-74
2023/02/07 09:19:55;;;;;;;29.38;15.30;;;-0.20;99.90;;;;;;5021080;28;20774;-74
2023/02/07 09:22:21;;;;;;;29.52;14.98;;;-0.20;99.90;;;;;;5004548;28;20040;-75
2023/02/07 09:24:46;;;;;;;29.25;14.27;;;-0.20;99.90;;;;;;5032258;28;20026;-74
2023/02/07 09:27:12;;;;;;;26.67;13.93;;;-0.20;99.90;;;;;;5027891;28;20037;-75
2023/02/07 09:29:39;;;;;;;28.48;14.93;;;-0.10;99.90;;;;;;5021090;28;20025;-76
2023/02/07 09:32:05;;;;;;;26.15;14.48;;;-0.10;99.90;;;;;;5024930;28;20025;-76
2023/02/07 09:34:34;;;;;;;25.75;15.15;;;-0.10;99.90;;;;;;5023767;28;20032;-74
2023/02/07 09:37:00;;;;;;;27.63;14.45;;;-0.10;99.90;;;;;;5024367;28;20454;-78
2023/02/07 09:39:26;;;;;;;28.50;15.38;;;0.00;99.90;;;;;;4988619;28;20051;-76
2023/02/07 09:42:07;;;;;;;27.90;14.35;;;0.00;99.90;;;;;;5022314;28;20532;-76
2023/02/07 09:44:57;;;;;;;27.33;14.73;;;0.00;99.90;;;;;;5026380;28;20149;-75
2023/02/07 09:47:24;;;;;;;24.70;14.03;;;0.00;99.90;;;;;;5025516;28;20037;-74
2023/02/07 09:49:53;;;;;;;30.92;14.68;;;0.00;99.90;;;;;;5025324;28;20084;-75
2023/02/07 09:52:45;;;;;;;30.15;15.00;;;0.00;99.90;;;;;;5026001;28;20039;-75
2023/02/07 09:55:36;;;;;;;27.73;14.82;;;0.00;99.90;;;;;;5027598;28;20072;-76
2023/02/07 09:58:36;;;;;;;26.50;14.70;;;0.00;99.90;;;;;;5030547;28;20037;-76
2023/02/07 10:01:17;;;;;;;28.08;15.18;;;0.00;99.90;;;;;;5026454;28;20029;-74
2023/02/07 10:04:05;;;;;;;30.38;15.25;;;0.10;99.90;;;;;;5026078;28;20029;-76
2023/02/07 10:06:33;;;;;;;25.65;14.90;;;0.10;99.90;;;;;;5023862;28;20521;-75
2023/02/07 10:08:59;;;;;;;29.08;15.85;;;0.10;99.90;;;;;;5026457;28;20030;-73
2023/02/07 10:11:33;;;;;;;26.25;14.48;;;0.10;99.90;;;;;;5028743;28;20465;-74
2023/02/07 10:14:07;;;;;;;27.90;13.77;;;0.10;99.90;;;;;;5027572;28;20021;-74
2023/02/07 10:17:14;;;;;;;24.60;13.52;;;0.10;99.90;;;;;;5026256;28;20029;-73
2023/02/07 10:20:04;;;;;;;24.45;13.15;;;0.20;99.90;;;;;;4995652;28;20073;-75
2023/02/07 10:22:49;;;;;;;25.23;12.95;;;0.10;99.90;;;;;;5025615;28;20425;-74
2023/02/07 10:25:40;;;;;;;24.73;13.95;;;0.20;99.90;;;;;;5023875;28;20025;-78
2023/02/07 10:28:15;;;;;;;25.92;13.88;;;0.20;99.90;;;;;;5006978;28;20035;-75
2023/02/07 10:30:51;;;;;;;27.35;14.35;;;0.10;99.90;;;;;;5022155;28;20057;-75
2023/02/07 10:33:30;;;;;;;28.70;14.30;;;0.10;99.90;;;;;;5021783;28;20021;-75
2023/02/07 10:35:56;;;;;;;28.20;15.40;;;0.10;99.90;;;;;;5024447;28;20052;-73
2023/02/07 10:38:31;;;;;;;25.20;14.88;;;0.20;99.90;;;;;;5026399;28;20400;-74
2023/02/07 10:41:16;;;;;;;31.08;16.40;;;0.10;99.90;;;;;;5023980;28;20992;-75
2023/02/07 10:43:44;;;;;;;32.85;17.02;;;0.10;99.90;;;;;;5024094;28;20398;-75
2023/02/07 10:46:14;;;;;;;30.92;17.05;;;0.00;99.90;;;;;;5039649;28;20083;-73
2023/02/07 10:48:40;;;;;;;27.45;15.32;;;0.00;99.90;;;;;;5024983;28;20025;-75
2023/02/07 10:51:36;;;;;;;32.90;16.60;;;0.00;99.90;;;;;;5006764;28;20025;-76
2023/02/07 10:54:06;;;;;;;29.52;16.73;;;0.10;99.90;;;;;;5022482;28;20164;-74
2023/02/07 10:56:36;;;;;;;33.95;17.55;;;0.10;99.90;;;;;;5021718;28;20029;-75
2023/02/07 10:59:02;;;;;;;32.42;17.05;;;0.10;99.90;;;;;;5016869;28;20037;-74
2023/02/07 11:01:31;;;;;;;34.55;17.55;;;0.10;99.90;;;;;;5024566;28;20029;-74
2023/02/07 11:03:57;;;;;;;30.85;16.52;;;0.10;99.90;;;;;;5002722;28;20408;-75
2023/02/07 11:06:26;;;;;;;31.25;16.20;;;0.10;99.90;;;;;;5029450;28;20029;-75
2023/02/07 11:09:09;;;;;;;28.27;16.08;;;0.20;99.90;;;;;;5041740;28;20037;-74
2023/02/07 11:11:37;;;;;;;29.42;16.20;;;0.20;99.90;;;;;;5034294;28;20030;-75
2023/02/07 11:14:05;;;;;;;32.78;16.23;;;0.30;99.90;;;;;;5041854;28;20530;-75
2023/02/07 11:16:31;;;;;;;34.28;15.77;;;0.30;99.90;;;;;;5039476;28;20458;-74
2023/02/07 11:19:03;;;;;;;32.03;17.05;;;0.30;99.90;;;;;;5027007;28;20028;-73
2023/02/07 11:21:32;;;;;;;36.05;17.17;;;0.40;99.90;;;;;;5026658;28;20520;-74
2023/02/07 11:24:02;;;;;;;31.27;15.73;;;0.40;99.90;;;;;;5025783;28;20030;-75
2023/02/07 11:26:30;;;;;;;35.60;18.05;;;0.40;99.90;;;;;;5026146;28;20066;-75
2023/02/07 11:29:10;;;;;;;34.17;17.52;;;0.50;99.90;;;;;;5027511;28;20033;-73
2023/02/07 11:31:37;;;;;;;31.00;16.65;;;0.60;99.90;;;;;;5028160;28;20091;-75
2023/02/07 11:34:49;;;;;;;29.63;16.23;;;0.60;99.90;;;;;;5026722;28;20031;-75
2023/02/07 11:37:27;;;;;;;32.03;16.52;;;0.70;99.90;;;;;;4986489;28;20075;-76
2023/02/07 11:40:14;;;;;;;32.20;17.52;;;0.80;99.90;;;;;;5023275;28;20067;-77
2023/02/07 11:42:40;;;;;;;31.77;16.90;;;0.80;99.90;;;;;;4983161;28;20047;-73
2023/02/07 11:45:17;;;;;;;33.75;17.13;;;0.90;99.90;;;;;;5008170;28;20549;-75
2023/02/07 11:47:47;;;;;;;31.17;16.88;;;1.10;99.90;;;;;;5014865;28;20057;-73
2023/02/07 11:50:38;;;;;;;33.42;17.17;;;1.10;99.90;;;;;;5011383;28;20025;-76
2023/02/07 11:53:05;;;;;;;31.25;17.45;;;1.10;99.90;;;;;;5043658;28;20026;-76
2023/02/07 11:55:38;;;;;;;35.38;17.20;;;1.20;99.90;;;;;;5026960;28;20031;-76
2023/02/07 11:58:18;;;;;;;36.05;17.35;;;1.20;99.90;;;;;;5028493;28;20041;-75
2023/02/07 12:00:45;;;;;;;37.13;17.73;;;1.20;99.90;;;;;;5029808;28;20029;-75
2023/02/07 12:03:21;;;;;;;31.33;16.95;;;1.20;99.90;;;;;;5028387;28;20284;-73
2023/02/07 12:05:52;;;;;;;34.13;17.23;;;1.30;99.90;;;;;;5027542;28;20056;-73
2023/02/07 12:08:21;;;;;;;;;;;1.30;99.90;;;;;;5027524;28;20026;-73
2023/02/07 12:10:52;;;;;;;35.00;17.63;;;1.20;99.90;;;;;;5020845;28;19909;-75
2023/02/07 12:13:37;;;;;;;34.28;18.40;;;1.20;99.90;;;;;;5014098;28;20559;-75
2023/02/07 12:16:12;;;;;;;39.15;19.77;;;1.20;99.90;;;;;;5032796;28;20025;-75
2023/02/07 12:18:47;;;;;;;43.65;21.58;;;1.10;99.90;;;;;;5020445;28;20029;-76
2023/02/07 12:21:29;;;;;;;45.45;21.42;;;1.20;99.90;;;;;;5030857;28;20043;-75
2023/02/07 12:24:13;;;;;;;46.72;21.55;;;1.10;99.90;;;;;;5030536;28;20394;-76
2023/02/07 12:26:49;;;;;;;44.78;21.30;;;1.10;99.90;;;;;;5025815;28;20037;-76
2023/02/07 12:30:02;;;;;;;42.38;19.70;;;1.10;99.90;;;;;;5028806;28;20342;-74
2023/02/07 12:32:39;;;;;;;52.28;23.30;;;1.10;99.90;;;;;;4960688;28;20184;-74
2023/02/07 12:35:12;;;;;;;51.03;24.73;;;1.10;99.90;;;;;;5008255;28;20042;-75
2023/02/07 12:38:15;;;;;;;51.60;22.58;;;1.10;99.90;;;;;;5028545;28;20064;-74
2023/02/07 12:40:54;;;;;;;53.53;23.88;;;1.20;99.90;;;;;;5005258;28;20754;-75
2023/02/07 12:43:36;;;;;;;50.85;23.15;;;1.10;99.90;;;;;;5027527;28;20124;-76
2023/02/07 12:46:31;;;;;;;50.67;24.38;;;1.10;99.90;;;;;;5025029;28;20025;-76
2023/02/07 12:49:31;;;;;;;50.22;24.63;;;1.10;99.90;;;;;;4986569;28;20140;-75
2023/02/07 12:51:59;;;;;;;48.05;22.70;;;1.10;99.90;;;;;;5032820;28;20446;-74
2023/02/07 12:54:52;;;;;;;43.08;22.42;;;1.10;99.90;;;;;;5053424;28;20041;-74